2012 Spa Girl Tri Results

2012 Spa Girl Tri Results
Overall Swim
400m swim
+
400m run
T1 Bike
10 miles
T2 Run
2.4 miles
AG
Pos
Overall
Pos
Name Race No Finish
Time
AG
Pos
Overall
Pos
Time AG
Pos
Overall
Pos
Time AG
Pos
Overall
Pos
Pace Time AG
Pos
Overall
Pos
Time AG
Pos
Overall
Pos
Time Pace
Overall
1 1 Sharon SANDER 1037 01:01:19 1 4 00:09:21 1 9 00:00:56 2 5 19.5 m/hr 00:30:50 1 10 00:00:47 2 19 00:19:24 8:05 min/m
2 2 Mandie SVATEK 1022 01:03:19 2 5 00:09:22 3 17 00:01:06 3 30 17.6 m/hr 00:34:02 2 16 00:00:54 1 4 00:17:54 7:27 min/m
3 3 Monica MARSH 1046 01:03:29 3 38 00:11:02 2 14 00:01:05 1 4 19.5 m/hr 00:30:47 3 24 00:00:59 3 20 00:19:34 8:09 min/m
Masters
1 5 Cynthia THOREN 1042 01:04:09 1 34 00:11:00 1 61 00:01:31 1 6 19.4 m/hr 00:30:55 1 144 00:01:45 1 13 00:18:57 7:54 min/m
Ages 19 and Under
1 30 Olivia TODD 1006 01:09:58 2 3 00:09:05 4 72 00:01:35 1 41 17.4 m/hr 00:34:33 2 11 00:00:47 5 103 00:23:56 9:58 min/m
2 36 Taylor WALSH 1003 01:11:07 1 2 00:09:02 2 43 00:01:23 2 61 16.5 m/hr 00:36:25 1 3 00:00:39 3 95 00:23:37 9:50 min/m
3 57 Megan TODD 1009 01:14:10 4 8 00:09:35 6 108 00:01:55 3 93 15.8 m/hr 00:38:04 3 19 00:00:56 4 96 00:23:39 9:51 min/m
4 111 Madeline ROBERTSON 1035 01:19:25 3 7 00:09:34 3 64 00:01:32 4 101 15.6 m/hr 00:38:31 6 40 00:01:07 7 194 00:28:40 11:56 min/m
5 157 Megan DEMEL 1125 01:27:01 5 74 00:11:47 8 180 00:02:44 5 146 14.6 m/hr 00:41:12 8 200 00:02:12 8 200 00:29:04 12:06 min/m
6 213 Christie KRAMER 1033 01:36:37 6 89 00:11:58 5 83 00:01:40 6 191 12.9 m/hr 00:46:35 7 167 00:01:52 9 243 00:34:30 14:22 min/m
7 215 Paola MATUS 1102 01:37:12 9 220 00:13:45 9 226 00:03:46 7 219 12.2 m/hr 00:49:02 9 248 00:03:25 6 177 00:27:12 11:20 min/m
8 222 Kyleigh KELLEY 1281 01:38:27 7 122 00:12:18 7 122 00:02:03 8 250 9.9 m/hr 01:00:23 4 26 00:01:01 1 73 00:22:41 9:27 min/m
9 241 Jaylynn WIMBERLY 1290 01:46:31 8 163 00:12:46 1 1 00:00:28 9 257 8.7 m/hr 01:09:00 5 29 00:01:02 2 86 00:23:14 9:41 min/m
Ages 20 - 24
1 31 Maria GREENE 1027 01:10:09 1 21 00:10:39 2 78 00:01:38 2 57 16.6 m/hr 00:36:09 1 7 00:00:45 2 38 00:20:57 8:44 min/m
2 80 Julie KRAMER 1012 01:16:48 2 29 00:10:53 1 62 00:01:31 3 84 15.9 m/hr 00:37:47 6 83 00:01:22 5 129 00:25:13 10:30 min/m
3 99 Malissa GALLINI 1289 01:18:18 5 168 00:12:50 4 148 00:02:22 5 161 14.1 m/hr 00:42:38 5 70 00:01:19 1 16 00:19:08 7:58 min/m
4 139 Denise BLONDER 1273 01:23:43 6 181 00:13:04 7 242 00:04:17 1 2 21.1 m/hr 00:28:27 8 260 00:05:12 7 235 00:32:41 13:37 min/m
5 155 Lacy OWENS 1169 01:26:29 7 193 00:13:18 8 245 00:04:32 4 149 14.5 m/hr 00:41:20 7 259 00:04:39 3 72 00:22:39 9:26 min/m
6 173 Sara SHEPPERD 1209 01:29:17 4 149 00:12:39 3 112 00:01:57 6 199 12.6 m/hr 00:47:36 3 43 00:01:09 6 147 00:25:55 10:48 min/m
7 183 Caitlin LEACH 1086 01:30:36 3 76 00:11:48 5 152 00:02:25 7 227 11.8 m/hr 00:51:01 4 63 00:01:17 4 108 00:24:04 10:02 min/m
8 249 Juliet MENDOZA 1163 01:56:28 8 236 00:14:22 6 166 00:02:33 8 254 9.5 m/hr 01:03:19 2 32 00:01:04 8 245 00:35:09 14:38 min/m
Ages 25 - 29
1 7 Valerie CHASE 1055 01:05:13 2 18 00:10:35 5 73 00:01:36 1 15 18.4 m/hr 00:32:31 4 58 00:01:15 2 17 00:19:15 8:01 min/m
2 12 Angela COOMES 1124 01:06:02 1 17 00:10:30 6 76 00:01:38 2 23 18.1 m/hr 00:33:14 5 59 00:01:15 3 18 00:19:24 8:05 min/m
3 16 Esther APPLEGATE 1067 01:06:48 3 24 00:10:41 1 15 00:01:05 3 26 17.7 m/hr 00:33:49 6 80 00:01:22 4 23 00:19:50 8:16 min/m
4 48 Emily GREGOR 1040 01:13:16 8 59 00:11:32 9 99 00:01:52 6 73 16.2 m/hr 00:37:08 12 120 00:01:35 6 40 00:21:07 8:47 min/m
5 51 Sarah GADSBY 1126 01:13:30 10 88 00:11:57 13 135 00:02:11 7 75 16.1 m/hr 00:37:13 17 179 00:01:58 5 27 00:20:09 8:24 min/m
6 54 Deana COOK 1123 01:13:34 4 28 00:10:52 8 85 00:01:41 8 96 15.7 m/hr 00:38:09 1 38 00:01:06 7 50 00:21:44 9:03 min/m
7 62 Lacey ALBERS 1056 01:14:52 16 157 00:12:43 4 58 00:01:31 5 68 16.3 m/hr 00:36:50 16 138 00:01:42 8 55 00:22:05 9:12 min/m
8 67 Tabitha ANDERSON 1186 01:15:43 7 48 00:11:19 2 27 00:01:15 4 42 17.4 m/hr 00:34:34 14 122 00:01:36 15 168 00:26:58 11:14 min/m
9 71 Veronica HOLTZ 1218 01:16:02 13 126 00:12:21 3 28 00:01:15 9 97 15.7 m/hr 00:38:10 10 100 00:01:27 9 76 00:22:48 9:30 min/m
10 78 Lauren THARPE 1023 01:16:37 5 35 00:11:01 7 79 00:01:38 11 122 15.2 m/hr 00:39:34 8 86 00:01:23 10 79 00:23:00 9:35 min/m
11 83 Kelly SIKA 1136 01:17:09 18 162 00:12:46 14 151 00:02:24 15 160 14.1 m/hr 00:42:29 9 98 00:01:26 1 5 00:18:02 7:30 min/m
12 132 April OBERSTELLER 1265 01:22:19 12 110 00:12:08 12 118 00:02:00 14 157 14.1 m/hr 00:42:24 11 114 00:01:34 11 112 00:24:12 10:05 min/m
13 133 Diane PARKER 1047 01:22:41 21 237 00:14:25 17 169 00:02:33 10 111 15.4 m/hr 00:38:51 13 121 00:01:35 13 130 00:25:15 10:31 min/m
14 135 Corrine LOWDER 1276 01:23:27 6 40 00:11:05 18 198 00:03:03 13 155 14.2 m/hr 00:42:22 3 51 00:01:13 14 143 00:25:43 10:43 min/m
15 149 Emily BITETTO 1107 01:24:15 11 93 00:12:00 19 199 00:03:06 12 135 14.9 m/hr 00:40:21 2 41 00:01:09 17 184 00:27:38 11:30 min/m
16 177 Savannah MENDOZA 1130 01:30:04 19 185 00:13:11 15 161 00:02:30 16 165 13.7 m/hr 00:43:42 21 240 00:03:05 16 183 00:27:34 11:29 min/m
17 189 Jessica BIGGER 1191 01:32:03 17 159 00:12:45 10 111 00:01:56 18 193 12.8 m/hr 00:46:59 15 131 00:01:40 18 195 00:28:42 11:57 min/m
18 194 Candice GORDON 1156 01:33:22 15 148 00:12:38 20 248 00:04:41 17 166 13.7 m/hr 00:43:49 20 227 00:02:43 20 204 00:29:30 12:17 min/m
19 201 Jessica L RUIZ VELASCO 1094 01:34:13 9 63 00:11:34 16 167 00:02:33 20 213 12.3 m/hr 00:48:44 18 187 00:02:04 19 202 00:29:17 12:12 min/m
20 216 Ellen QUILLEN 1091 01:37:13 14 140 00:12:32 11 116 00:01:59 19 203 12.5 m/hr 00:48:04 7 85 00:01:22 21 238 00:33:14 13:50 min/m
21 253 Samantha DAYWOOD 1248 02:01:56 20 232 00:14:05 21 255 00:05:15 22 260 8.0 m/hr 01:14:40 22 245 00:03:21 12 119 00:24:33 10:13 min/m
22 260 Stefanie HARRIS 1236 02:12:09 22 247 00:14:48 22 257 00:06:43 21 259 8.4 m/hr 01:11:45 19 213 00:02:24 22 248 00:36:28 15:11 min/m
Ages 30 - 34
1 13 Brandi HATCH 1041 01:06:10 7 53 00:11:25 1 7 00:00:55 1 13 18.5 m/hr 00:32:27 9 47 00:01:11 2 28 00:20:11 8:24 min/m
2 23 Amanda CHAMBERLAIN 1142 01:08:39 12 70 00:11:42 5 26 00:01:14 3 27 17.7 m/hr 00:33:55 21 97 00:01:26 4 31 00:20:20 8:28 min/m
3 24 Denise DANIEL 1154 01:09:06 5 51 00:11:21 6 33 00:01:18 2 14 18.4 m/hr 00:32:31 24 112 00:01:33 11 62 00:22:21 9:18 min/m
4 27 Leah VILLARREAL 1187 01:09:47 15 78 00:11:48 8 47 00:01:24 6 49 16.9 m/hr 00:35:28 1 15 00:00:53 3 29 00:20:12 8:25 min/m
5 28 Carrie SALGE 1021 01:09:55 1 14 00:10:23 9 48 00:01:26 5 39 17.4 m/hr 00:34:28 16 88 00:01:23 9 60 00:22:14 9:16 min/m
6 49 Stephanie FISHEL 1110 01:13:18 10 61 00:11:33 10 50 00:01:28 7 56 16.6 m/hr 00:36:05 7 45 00:01:10 13 80 00:23:01 9:35 min/m
7 55 Faith PENA 1060 01:13:53 6 52 00:11:23 3 11 00:01:00 4 38 17.4 m/hr 00:34:24 25 116 00:01:34 25 139 00:25:31 10:38 min/m
8 58 Michelle BINGHAM 1071 01:14:10 8 57 00:11:29 18 104 00:01:54 8 64 16.4 m/hr 00:36:39 5 22 00:00:59 14 82 00:23:08 9:38 min/m
9 61 Juana RUIZ 1269 01:14:49 27 138 00:12:30 7 45 00:01:23 17 107 15.5 m/hr 00:38:46 2 17 00:00:55 6 41 00:21:13 8:50 min/m
10 75 Erin GRAHAM 1081 01:16:21 18 82 00:11:53 16 92 00:01:44 22 140 14.7 m/hr 00:40:55 3 20 00:00:57 5 36 00:20:50 8:41 min/m
11 76 Michelle GRIMES 1082 01:16:26 11 67 00:11:39 14 90 00:01:43 10 79 16.0 m/hr 00:37:33 12 65 00:01:17 18 111 00:24:12 10:05 min/m
12 79 Jaime MCKAY 1263 01:16:40 9 58 00:11:29 31 176 00:02:39 12 89 15.8 m/hr 00:38:02 43 204 00:02:14 10 61 00:22:15 9:16 min/m
13 87 Cheryl WATSON 1176 01:17:32 20 105 00:12:06 21 136 00:02:13 16 106 15.5 m/hr 00:38:45 42 202 00:02:13 8 59 00:22:13 9:15 min/m
14 91 Crystal LUGO 1159 01:17:41 21 108 00:12:07 15 91 00:01:44 14 99 15.6 m/hr 00:38:21 36 174 00:01:55 15 92 00:23:32 9:48 min/m
15 93 Mandi READ 1222 01:17:50 42 200 00:13:21 40 219 00:03:38 20 126 15.1 m/hr 00:39:50 8 46 00:01:11 1 21 00:19:49 8:15 min/m
16 98 Carrie HANIS 1111 01:18:05 16 79 00:11:50 20 130 00:02:09 13 95 15.7 m/hr 00:38:08 38 181 00:01:59 17 105 00:23:58 9:59 min/m
17 101 Nicole MORRIS 1166 01:18:31 23 114 00:12:10 45 237 00:04:06 9 77 16.1 m/hr 00:37:21 48 250 00:03:30 7 43 00:21:23 8:54 min/m
18 104 Kari YOKLEY 1179 01:19:04 13 71 00:11:42 13 84 00:01:40 19 121 15.2 m/hr 00:39:34 23 102 00:01:29 20 120 00:24:37 10:15 min/m
19 107 Kim MOSES 1057 01:19:09 3 41 00:11:06 23 145 00:02:19 11 82 15.9 m/hr 00:37:39 47 247 00:03:24 21 122 00:24:39 10:16 min/m
20 113 Ruth JOHNSON 1237 01:19:33 32 154 00:12:41 25 157 00:02:29 18 109 15.5 m/hr 00:38:49 34 163 00:01:51 16 98 00:23:41 9:52 min/m
21 119 Sarah MILLER 1233 01:20:05 4 42 00:11:07 17 93 00:01:45 21 131 15.0 m/hr 00:40:05 26 124 00:01:37 24 136 00:25:29 10:37 min/m
22 124 Aryn Kylie RILEY 1015 01:20:40 2 22 00:10:41 22 138 00:02:14 15 100 15.6 m/hr 00:38:23 31 157 00:01:50 34 182 00:27:30 11:27 min/m
23 137 Ashley ADKINS-ECKERMANN 1011 01:23:34 19 90 00:11:59 2 10 00:00:58 25 151 14.5 m/hr 00:41:30 6 34 00:01:05 36 190 00:28:01 11:40 min/m
24 141 Natalie MILLER 1013 01:23:46 22 112 00:12:10 27 164 00:02:31 23 142 14.6 m/hr 00:41:03 41 197 00:02:10 28 146 00:25:50 10:46 min/m
25 158 Rachel VERME 1114 01:27:40 38 184 00:13:09 35 197 00:03:01 27 174 13.4 m/hr 00:44:40 13 75 00:01:21 23 135 00:25:28 10:36 min/m
26 166 Cassie ZIMMERMANN 1010 01:28:31 36 180 00:13:02 44 229 00:03:47 31 196 12.7 m/hr 00:47:16 27 128 00:01:39 12 75 00:22:45 9:29 min/m
27 167 Raina WILLICK 1096 01:28:45 44 206 00:13:24 32 181 00:02:45 26 164 13.8 m/hr 00:43:35 32 159 00:01:50 31 173 00:27:10 11:19 min/m
28 172 Lisa WRIGHT 1275 01:29:17 30 151 00:12:40 4 23 00:01:11 28 180 13.3 m/hr 00:45:04 22 99 00:01:27 37 198 00:28:54 12:02 min/m
29 176 Adrianna WARREN 1141 01:29:50 29 145 00:12:37 34 194 00:02:59 29 185 12.9 m/hr 00:46:21 33 160 00:01:51 29 151 00:26:01 10:50 min/m
30 179 Danie CHRISOPE 1151 01:30:15 45 219 00:13:42 19 105 00:01:54 24 150 14.5 m/hr 00:41:24 29 152 00:01:48 41 227 00:31:26 13:06 min/m
31 190 Sara GILHEART 1196 01:32:23 43 201 00:13:22 39 215 00:03:31 30 192 12.9 m/hr 00:46:39 19 95 00:01:26 33 180 00:27:25 11:25 min/m
32 191 Maggie CARPENTER 1245 01:32:42 41 198 00:13:20 46 249 00:04:43 32 198 12.6 m/hr 00:47:31 44 230 00:02:45 19 117 00:24:22 10:09 min/m
33 195 Lindsey PATTON 1134 01:33:26 46 221 00:13:46 12 56 00:01:30 40 231 11.7 m/hr 00:51:26 18 93 00:01:24 22 131 00:25:18 10:32 min/m
34 199 Brenna HOWELL 1145 01:33:59 14 73 00:11:46 36 200 00:03:06 35 222 12.0 m/hr 00:49:49 39 182 00:01:59 32 178 00:27:17 11:22 min/m
35 206 Yvette RODRIGUEZ 1268 01:35:14 17 81 00:11:51 33 185 00:02:53 41 235 11.3 m/hr 00:53:06 28 134 00:01:41 26 141 00:25:42 10:42 min/m
36 210 Tiffany REMSING 1223 01:36:23 40 194 00:13:18 11 54 00:01:29 34 207 12.4 m/hr 00:48:14 11 50 00:01:12 44 233 00:32:08 13:23 min/m
37 218 Kim CUTBIRTH 1076 01:37:42 24 116 00:12:12 30 174 00:02:38 42 238 11.1 m/hr 00:53:48 15 81 00:01:22 35 185 00:27:41 11:32 min/m
38 219 Summer LYONS 1204 01:37:46 39 192 00:13:17 29 172 00:02:36 33 204 12.5 m/hr 00:48:08 40 196 00:02:10 42 228 00:31:33 13:08 min/m
39 220 Kerry ONEAL 1133 01:37:56 31 152 00:12:41 41 220 00:03:40 36 223 12.0 m/hr 00:50:03 14 78 00:01:21 40 212 00:30:09 12:33 min/m
40 225 Kristina GONZALES 1080 01:40:01 26 132 00:12:26 37 202 00:03:09 39 230 11.7 m/hr 00:51:20 45 238 00:03:03 39 209 00:30:01 12:30 min/m
41 235 Tammie WARREN 1274 01:44:12 25 128 00:12:23 38 213 00:03:26 43 247 10.1 m/hr 00:59:19 37 178 00:01:57 30 171 00:27:05 11:17 min/m
42 236 Andy SALAZAR AGUIRRE 1173 01:44:23 35 178 00:12:59 24 156 00:02:29 37 224 11.9 m/hr 00:50:17 30 155 00:01:50 47 249 00:36:47 15:19 min/m
43 237 Amy CARSON 1007 01:44:25 34 172 00:12:54 42 225 00:03:46 45 251 9.8 m/hr 01:01:00 4 21 00:00:58 27 144 00:25:46 10:44 min/m
44 238 Olivia LOPEZ 1158 01:45:01 48 252 00:15:28 26 159 00:02:29 38 229 11.7 m/hr 00:51:20 17 89 00:01:24 45 241 00:34:19 14:17 min/m
45 245 Meliza MATOS 1279 01:53:01 28 144 00:12:36 47 258 00:07:00 44 249 9.9 m/hr 01:00:19 46 242 00:03:13 38 208 00:29:52 12:26 min/m
46 247 Christina WIMBERLY 1284 01:54:42 33 169 00:12:51 48 259 00:07:03 46 252 9.7 m/hr 01:01:44 10 48 00:01:11 43 230 00:31:51 13:16 min/m
47 256 Amy WINSTEAD 1097 02:06:54 37 182 00:13:05 43 228 00:03:47 47 256 8.8 m/hr 01:07:55 20 96 00:01:26 48 257 00:40:40 16:57 min/m
48 259 Elaine HERNANDEZ 1255 02:08:57 47 229 00:14:03 28 168 00:02:33 48 261 8.0 m/hr 01:14:51 35 173 00:01:55 46 246 00:35:34 14:49 min/m
Ages 35 - 39
1 4 Aixa ALVAREZ 1044 01:03:33 2 10 00:10:04 9 38 00:01:19 2 12 18.5 m/hr 00:32:23 1 8 00:00:46 3 14 00:19:00 7:55 min/m
2 6 Jennifer HALE 1197 01:05:01 4 20 00:10:38 13 52 00:01:29 4 24 17.8 m/hr 00:33:38 19 110 00:01:32 1 1 00:17:43 7:23 min/m
3 8 Michelle DEL TORO 1077 01:05:18 9 55 00:11:27 2 18 00:01:07 5 25 17.8 m/hr 00:33:43 9 49 00:01:12 2 3 00:17:48 7:25 min/m
4 18 Shane HESLIN 1105 01:07:15 3 16 00:10:30 7 36 00:01:19 8 36 17.5 m/hr 00:34:21 13 56 00:01:14 5 22 00:19:50 8:16 min/m
5 29 Amy MILLER 1131 01:09:57 11 62 00:11:33 29 128 00:02:07 12 52 16.7 m/hr 00:35:54 16 74 00:01:20 4 15 00:19:02 7:55 min/m
6 33 Sara COLLIER 1075 01:10:43 6 25 00:10:43 3 21 00:01:10 15 74 16.1 m/hr 00:37:09 11 53 00:01:13 8 33 00:20:26 8:31 min/m
7 35 Chandra KELLEY 1032 01:10:54 1 6 00:09:32 32 147 00:02:21 6 32 17.6 m/hr 00:34:09 32 169 00:01:54 17 78 00:22:56 9:33 min/m
8 38 Kelly KIOLBASSA 1260 01:11:22 47 243 00:14:37 33 150 00:02:22 1 1 23.7 m/hr 00:25:17 47 232 00:02:51 31 157 00:26:14 10:56 min/m
9 40 Dana FARRAR 1020 01:11:25 5 23 00:10:41 10 40 00:01:20 9 47 17.0 m/hr 00:35:22 18 101 00:01:28 16 70 00:22:33 9:24 min/m
10 41 Misty BAUGH 1234 01:11:35 21 109 00:12:08 4 22 00:01:10 7 35 17.5 m/hr 00:34:17 27 149 00:01:46 13 58 00:22:12 9:15 min/m
11 50 Catherine WALL 1140 01:13:24 16 96 00:12:01 11 42 00:01:22 10 48 16.9 m/hr 00:35:23 14 67 00:01:18 19 87 00:23:19 9:43 min/m
12 63 Edith ELLORIMO 1155 01:15:01 39 189 00:13:14 18 74 00:01:37 14 72 16.2 m/hr 00:37:01 4 30 00:01:02 12 56 00:22:05 9:12 min/m
13 65 Jennifer TODD 1232 01:15:32 8 46 00:11:17 27 123 00:02:03 33 145 14.6 m/hr 00:41:08 2 9 00:00:47 7 30 00:20:16 8:26 min/m
14 66 Tifany ALVAREZ 1241 01:15:43 44 224 00:13:50 8 37 00:01:19 11 50 16.8 m/hr 00:35:38 41 215 00:02:30 14 66 00:22:25 9:20 min/m
15 81 Tasha WILKINSON 1211 01:16:49 20 106 00:12:06 5 29 00:01:15 17 83 15.9 m/hr 00:37:39 37 189 00:02:05 21 99 00:23:42 9:52 min/m
16 86 Donna MINNIEAR 1164 01:17:26 22 117 00:12:14 6 30 00:01:17 29 130 15.0 m/hr 00:40:02 15 69 00:01:18 15 69 00:22:33 9:23 min/m
17 88 Janelle URIOSTE 1271 01:17:32 7 44 00:11:12 21 89 00:01:42 21 112 15.4 m/hr 00:39:02 17 91 00:01:24 24 110 00:24:10 10:04 min/m
18 90 Sara PATTERSON 1207 01:17:39 27 135 00:12:27 25 110 00:01:55 22 113 15.4 m/hr 00:39:02 48 236 00:02:57 10 42 00:21:17 8:52 min/m
19 97 Jana SULLIVAN 1224 01:18:04 19 103 00:12:04 19 81 00:01:39 19 86 15.8 m/hr 00:37:59 22 127 00:01:39 27 123 00:24:41 10:17 min/m
20 103 Carrie CLEMONS 1074 01:18:48 15 86 00:11:57 26 115 00:01:58 20 91 15.8 m/hr 00:38:02 42 218 00:02:32 25 115 00:24:18 10:07 min/m
21 105 Veronica ALANIZ 1064 01:19:05 45 235 00:14:18 43 216 00:03:33 3 22 18.1 m/hr 00:33:11 49 246 00:03:24 26 121 00:24:38 10:15 min/m
22 108 Natalie BOCK 1072 01:19:09 25 133 00:12:27 36 165 00:02:33 24 116 15.3 m/hr 00:39:17 21 126 00:01:39 18 83 00:23:12 9:40 min/m
23 115 Claudia IRIARTE 1181 01:19:36 18 99 00:12:03 24 97 00:01:51 25 117 15.2 m/hr 00:39:22 39 205 00:02:14 23 107 00:24:04 10:01 min/m
24 116 Anastasia FURITSCH 1039 01:19:58 23 120 00:12:17 20 86 00:01:41 13 55 16.6 m/hr 00:36:05 28 150 00:01:47 39 191 00:28:07 11:42 min/m
25 121 Jenni HARVEY CRIDER 1188 01:20:24 31 155 00:12:42 23 95 00:01:49 30 132 14.9 m/hr 00:40:08 35 177 00:01:57 22 101 00:23:47 9:54 min/m
26 122 Kristine PARKERSON 1171 01:20:25 37 175 00:12:57 30 129 00:02:08 18 85 15.8 m/hr 00:37:58 38 199 00:02:12 29 128 00:25:09 10:29 min/m
27 125 Roxann AGUIRRE 1120 01:21:00 14 84 00:11:55 22 94 00:01:46 28 129 15.0 m/hr 00:40:01 12 54 00:01:14 30 153 00:26:03 10:51 min/m
28 130 Sharon SANCHEZ 1230 01:22:07 29 141 00:12:32 41 209 00:03:23 37 172 13.5 m/hr 00:44:28 25 147 00:01:46 6 25 00:19:56 8:18 min/m
29 134 Denise ZUNIGA 1099 01:23:26 41 215 00:13:35 15 60 00:01:31 27 125 15.1 m/hr 00:39:41 26 148 00:01:46 34 162 00:26:51 11:11 min/m
30 138 Liza M VATHY 1210 01:23:39 13 83 00:11:53 17 71 00:01:35 31 137 14.7 m/hr 00:40:48 40 214 00:02:26 35 166 00:26:56 11:13 min/m
31 146 Salli COBB 1246 01:24:06 38 188 00:13:12 14 57 00:01:30 32 144 14.6 m/hr 00:41:06 7 37 00:01:06 36 174 00:27:10 11:19 min/m
32 147 Sonya LERMA 1227 01:24:09 35 165 00:12:48 31 143 00:02:16 40 194 12.7 m/hr 00:47:11 6 35 00:01:05 9 34 00:20:47 8:39 min/m
33 150 Mary Frances KOPCHO 1128 01:24:28 24 124 00:12:20 28 124 00:02:04 26 123 15.2 m/hr 00:39:35 43 220 00:02:33 38 189 00:27:55 11:38 min/m
34 151 Paula AMUNDSON 1242 01:24:37 34 164 00:12:47 37 173 00:02:37 16 78 16.0 m/hr 00:37:30 45 226 00:02:42 41 199 00:28:59 12:04 min/m
35 156 Jackie GARZA 1119 01:26:45 40 196 00:13:20 16 63 00:01:32 34 156 14.2 m/hr 00:42:22 3 14 00:00:52 40 193 00:28:38 11:55 min/m
36 161 April ZIMMERMANN 1225 01:27:53 42 217 00:13:39 1 12 00:01:01 39 181 13.2 m/hr 00:45:26 5 31 00:01:03 33 161 00:26:42 11:07 min/m
37 174 Christina CHILDRESS 1150 01:29:45 10 56 00:11:28 44 218 00:03:37 49 232 11.7 m/hr 00:51:26 29 153 00:01:48 11 45 00:21:24 8:55 min/m
38 184 Ramie SAMOUR 1287 01:30:41 33 160 00:12:45 38 195 00:02:59 35 170 13.5 m/hr 00:44:24 10 52 00:01:13 42 203 00:29:19 12:13 min/m
39 186 Nancy PEREZ 1208 01:31:25 43 222 00:13:48 46 227 00:03:47 38 175 13.4 m/hr 00:44:55 51 256 00:03:56 28 127 00:24:58 10:24 min/m
40 196 Michell BEALS 1213 01:33:29 46 241 00:14:32 48 231 00:03:48 23 114 15.3 m/hr 00:39:07 50 249 00:03:29 47 234 00:32:32 13:33 min/m
41 198 Letitia RODRIGUEZ 1267 01:33:50 12 64 00:11:36 51 252 00:04:54 48 228 11.7 m/hr 00:51:10 46 229 00:02:44 20 90 00:23:25 9:45 min/m
42 203 Jennifer LEOS 1202 01:34:53 26 134 00:12:27 35 162 00:02:31 47 225 11.9 m/hr 00:50:34 31 162 00:01:51 37 181 00:27:28 11:27 min/m
43 211 Michelle MARTIN 1160 01:36:25 30 153 00:12:41 45 223 00:03:43 41 195 12.7 m/hr 00:47:13 30 154 00:01:48 46 222 00:30:58 12:54 min/m
44 212 Michelle BARROW 1243 01:36:29 36 167 00:12:50 34 158 00:02:29 46 218 12.3 m/hr 00:48:55 44 222 00:02:38 43 206 00:29:36 12:20 min/m
45 214 Erika HUERTA 1199 01:36:39 32 156 00:12:42 40 206 00:03:18 45 217 12.3 m/hr 00:48:54 24 139 00:01:42 44 211 00:30:02 12:31 min/m
46 224 Jennifer GANLEY 1251 01:39:40 28 137 00:12:30 42 212 00:03:26 50 233 11.6 m/hr 00:51:50 23 129 00:01:40 45 213 00:30:13 12:35 min/m
47 226 Mare STEWART 1137 01:40:53 17 98 00:12:02 49 232 00:03:51 51 239 10.6 m/hr 00:56:36 34 172 00:01:54 32 158 00:26:28 11:01 min/m
48 227 Kristi EDWARDS 1192 01:41:07 49 250 00:15:02 47 230 00:03:47 36 171 13.5 m/hr 00:44:25 52 257 00:04:08 48 240 00:33:43 14:02 min/m
49 239 Jessica GEHRKE 1195 01:45:17 51 256 00:16:22 12 44 00:01:23 42 200 12.5 m/hr 00:47:54 33 171 00:01:54 49 251 00:37:42 15:42 min/m
50 243 Tanya KEAN 1259 01:49:40 50 253 00:15:51 39 205 00:03:16 44 211 12.4 m/hr 00:48:31 36 188 00:02:05 50 254 00:39:55 16:38 min/m
51 250 Tanya TREVINO 1240 01:58:18 52 257 00:16:25 50 244 00:04:31 43 202 12.5 m/hr 00:47:59 20 123 00:01:37 52 259 00:47:45 19:53 min/m
52 252 Minerva ESPARZA 1250 02:01:51 48 245 00:14:41 52 261 00:09:05 52 240 10.5 m/hr 00:56:54 8 42 00:01:09 51 256 00:40:01 16:40 min/m
Ages 40 - 44
1 9 Alicia FRANK 1079 01:05:28 5 26 00:10:44 12 70 00:01:35 3 17 18.2 m/hr 00:33:03 14 71 00:01:20 2 9 00:18:45 7:49 min/m
2 26 Gena ALVAREZ 1049 01:09:41 23 104 00:12:05 2 13 00:01:04 2 9 18.9 m/hr 00:31:46 12 66 00:01:17 18 91 00:23:27 9:46 min/m
3 34 Tracey SCHEFFLER 1036 01:10:53 3 12 00:10:12 3 19 00:01:09 7 34 17.5 m/hr 00:34:17 1 13 00:00:50 25 118 00:24:24 10:10 min/m
4 37 Maribel GARCIA RILEY 1285 01:11:17 25 119 00:12:16 1 6 00:00:45 10 45 17.1 m/hr 00:35:06 5 39 00:01:06 11 52 00:22:02 9:11 min/m
5 39 Jennifer BECKEY 1070 01:11:23 10 45 00:11:16 13 77 00:01:38 11 51 16.8 m/hr 00:35:46 7 55 00:01:14 8 47 00:21:28 8:56 min/m
6 42 Jenny KING 1112 01:11:57 13 66 00:11:38 25 127 00:02:05 8 37 17.4 m/hr 00:34:23 50 207 00:02:16 9 48 00:21:33 8:58 min/m
7 43 Keely RODRIGUEZ 1093 01:12:04 17 85 00:11:56 10 55 00:01:30 12 54 16.7 m/hr 00:35:57 38 166 00:01:52 5 35 00:20:48 8:40 min/m
8 44 Tracie HAMMOND 1104 01:12:14 7 37 00:11:01 17 102 00:01:53 5 31 17.6 m/hr 00:34:04 13 68 00:01:18 22 104 00:23:57 9:59 min/m
9 45 Kristie FLOWER 1052 01:12:18 2 11 00:10:06 11 66 00:01:34 14 62 16.5 m/hr 00:36:25 30 142 00:01:44 13 68 00:22:28 9:21 min/m
10 46 Jennifer FISHER 1193 01:12:30 31 158 00:12:44 7 35 00:01:19 6 33 17.5 m/hr 00:34:15 28 140 00:01:43 12 67 00:22:28 9:21 min/m
11 52 Cheryl MONTGOMERY 1165 01:13:32 16 80 00:11:51 30 142 00:02:16 22 119 15.2 m/hr 00:39:26 21 104 00:01:30 1 7 00:18:27 7:41 min/m
12 53 Amy PICKRONAMYP 1063 01:13:33 4 13 00:10:21 18 106 00:01:54 29 143 14.6 m/hr 00:41:04 15 79 00:01:22 3 12 00:18:51 7:51 min/m
13 60 Nina SIRAK 1118 01:14:46 28 136 00:12:29 9 53 00:01:29 4 21 18.1 m/hr 00:33:09 18 92 00:01:24 35 156 00:26:14 10:55 min/m
14 64 Sheila COOK 1051 01:15:05 12 60 00:11:33 22 120 00:02:03 24 127 15.0 m/hr 00:40:00 25 115 00:01:34 4 24 00:19:54 8:17 min/m
15 70 Chrissy JENKINS 1286 01:15:59 19 91 00:11:59 58 239 00:04:07 13 60 16.5 m/hr 00:36:25 35 161 00:01:51 10 49 00:21:36 9:00 min/m
16 74 Nora TELLEZ 1185 01:16:21 33 166 00:12:49 20 109 00:01:55 15 67 16.3 m/hr 00:36:48 40 170 00:01:54 15 77 00:22:54 9:32 min/m
17 84 Claudia AGUERO-VAZQUEZ 1235 01:17:14 14 72 00:11:45 8 39 00:01:20 17 71 16.2 m/hr 00:36:59 52 212 00:02:23 26 124 00:24:46 10:19 min/m
18 92 Jill MITCHELL 1090 01:17:49 6 31 00:10:57 19 107 00:01:54 33 153 14.3 m/hr 00:41:49 27 137 00:01:42 7 46 00:21:26 8:55 min/m
19 95 Lynn HUGHES 1031 01:17:57 20 92 00:12:00 21 119 00:02:01 19 80 16.0 m/hr 00:37:35 16 84 00:01:22 28 126 00:24:57 10:23 min/m
20 96 Carmelita TEETER 1138 01:17:57 22 95 00:12:00 23 125 00:02:04 9 44 17.2 m/hr 00:34:47 32 146 00:01:46 42 179 00:27:19 11:23 min/m
21 109 Nancy RODRIGUEZ 1182 01:19:10 24 115 00:12:10 34 175 00:02:39 26 136 14.8 m/hr 00:40:40 4 33 00:01:05 14 71 00:22:35 9:24 min/m
22 112 Ashley ANDRES 1066 01:19:32 8 39 00:11:04 31 153 00:02:26 16 69 16.2 m/hr 00:36:58 43 184 00:02:02 40 169 00:27:01 11:15 min/m
23 118 Christy MARTINZ 1277 01:20:03 15 75 00:11:47 62 247 00:04:40 27 139 14.7 m/hr 00:40:52 39 168 00:01:53 6 37 00:20:50 8:41 min/m
24 123 Melinda COX 1153 01:20:37 29 146 00:12:37 24 126 00:02:04 23 120 15.2 m/hr 00:39:32 44 185 00:02:03 24 116 00:24:19 10:07 min/m
25 126 Grace POULSEN 1266 01:21:48 34 171 00:12:53 38 183 00:02:48 28 141 14.6 m/hr 00:40:57 31 145 00:01:45 17 89 00:23:24 9:45 min/m
26 128 Leonor CARROSQUILLA 1149 01:21:49 36 174 00:12:56 64 251 00:04:53 1 3 20.7 m/hr 00:29:00 47 192 00:02:08 59 236 00:32:50 13:41 min/m
27 136 Lisa CUMMINGS 1247 01:23:31 26 127 00:12:22 43 189 00:02:55 36 159 14.1 m/hr 00:42:29 36 164 00:01:52 21 102 00:23:52 9:56 min/m
28 140 Nhung NGUYEN 1168 01:23:46 51 218 00:13:41 29 140 00:02:16 30 147 14.5 m/hr 00:41:18 2 23 00:00:59 29 138 00:25:31 10:37 min/m
29 143 Denisse LYON 1054 01:23:51 11 49 00:11:20 27 133 00:02:11 38 163 13.9 m/hr 00:43:14 17 90 00:01:24 30 140 00:25:41 10:42 min/m
30 144 Karen ROSSON 1008 01:23:57 9 43 00:11:10 45 191 00:02:58 31 148 14.5 m/hr 00:41:19 10 62 00:01:17 41 176 00:27:12 11:20 min/m
31 152 Maureen HANSON 1198 01:25:15 42 195 00:13:19 14 88 00:01:41 20 88 15.8 m/hr 00:38:01 33 156 00:01:50 50 215 00:30:23 12:39 min/m
32 153 Meredith MAY 1089 01:25:23 32 161 00:12:46 37 182 00:02:47 21 110 15.5 m/hr 00:38:49 48 195 00:02:09 45 197 00:28:50 12:00 min/m
33 154 Susan SCHEUER 1058 01:26:00 57 234 00:14:13 5 25 00:01:13 18 76 16.1 m/hr 00:37:21 20 103 00:01:30 58 229 00:31:42 13:12 min/m
34 159 Lindsie FAGAN 1109 01:27:44 37 176 00:12:59 46 192 00:02:58 42 173 13.4 m/hr 00:44:37 19 94 00:01:25 31 142 00:25:43 10:43 min/m
35 160 Jennifer JOHNSON 1083 01:27:48 44 202 00:13:23 51 208 00:03:21 32 152 14.4 m/hr 00:41:44 54 221 00:02:37 36 160 00:26:41 11:07 min/m
36 162 Nancy BARNETT 1069 01:28:13 43 199 00:13:21 48 196 00:03:01 47 187 12.9 m/hr 00:46:25 34 158 00:01:50 20 94 00:23:35 9:49 min/m
37 163 Sissy BRADFORD 1073 01:28:17 35 173 00:12:56 40 186 00:02:54 25 134 14.9 m/hr 00:40:12 57 225 00:02:42 47 205 00:29:32 12:18 min/m
38 165 Michele DEMPSEY 1226 01:28:29 41 190 00:13:15 6 32 00:01:18 57 221 12.1 m/hr 00:49:35 8 57 00:01:14 16 81 00:23:05 9:37 min/m
39 168 Laura ZIVLEY 1239 01:28:47 54 227 00:13:55 44 190 00:02:57 45 182 13.1 m/hr 00:45:39 56 224 00:02:41 19 93 00:23:34 9:49 min/m
40 170 Shannon JACKSON 1117 01:29:03 38 177 00:12:59 42 188 00:02:55 37 162 14.0 m/hr 00:42:53 51 211 00:02:20 44 188 00:27:55 11:37 min/m
41 175 Joann CHAPMAN 1115 01:29:45 21 94 00:12:00 59 240 00:04:12 40 168 13.6 m/hr 00:44:05 53 219 00:02:32 38 165 00:26:55 11:13 min/m
42 178 Lisa GARCIA 1252 01:30:11 27 129 00:12:24 50 203 00:03:13 55 214 12.3 m/hr 00:48:44 26 136 00:01:41 23 109 00:24:08 10:03 min/m
43 180 Anjanette BRYANT 1025 01:30:27 1 9 00:09:40 4 24 00:01:12 52 206 12.4 m/hr 00:48:14 11 64 00:01:17 49 210 00:30:02 12:31 min/m
44 182 Trish MARTIN 1161 01:30:36 55 228 00:14:03 54 221 00:03:41 34 154 14.2 m/hr 00:42:21 64 258 00:04:23 34 155 00:26:06 10:52 min/m
45 185 Theresa ARTHUR 1147 01:30:49 45 203 00:13:23 61 246 00:04:33 39 167 13.6 m/hr 00:43:57 58 233 00:02:52 33 154 00:26:03 10:51 min/m
46 187 Caroline NIMS 1206 01:31:29 40 186 00:13:11 15 96 00:01:50 41 169 13.6 m/hr 00:44:08 37 165 00:01:52 51 216 00:30:27 12:41 min/m
47 188 Donna EVANS 1216 01:31:41 39 179 00:13:01 49 201 00:03:08 53 209 12.4 m/hr 00:48:24 49 203 00:02:14 27 125 00:24:53 10:22 min/m
48 192 Melissa JOHNSON 1258 01:32:56 50 214 00:13:33 26 131 00:02:09 51 201 12.5 m/hr 00:47:58 22 105 00:01:30 43 186 00:27:44 11:33 min/m
49 193 Natalie LOOMIS 1220 01:33:04 56 231 00:14:05 56 236 00:04:01 46 184 13.0 m/hr 00:46:02 41 175 00:01:56 39 167 00:26:58 11:14 min/m
50 197 Tami LOUIS 1261 01:33:30 62 246 00:14:45 57 238 00:04:07 48 188 12.9 m/hr 00:46:25 9 61 00:01:16 37 164 00:26:55 11:13 min/m
51 202 Ethel MORTON 1228 01:34:31 46 204 00:13:23 32 160 00:02:30 50 197 12.6 m/hr 00:47:26 42 183 00:02:01 46 201 00:29:10 12:09 min/m
52 205 Rhonda STEEL 1270 01:35:11 30 147 00:12:37 52 214 00:03:28 43 176 13.3 m/hr 00:44:57 60 241 00:03:07 55 223 00:31:01 12:55 min/m
53 207 Laura SHELTON 1174 01:35:56 48 210 00:13:28 16 101 00:01:52 49 189 12.9 m/hr 00:46:26 6 44 00:01:10 60 237 00:32:58 13:44 min/m
54 208 Caryn BARNES 1148 01:36:04 47 207 00:13:24 36 179 00:02:44 54 212 12.3 m/hr 00:48:39 23 108 00:01:31 48 207 00:29:45 12:23 min/m
55 217 Laura PEREZ 1172 01:37:15 61 244 00:14:40 47 193 00:02:59 44 179 13.3 m/hr 00:45:04 63 253 00:03:34 54 221 00:30:57 12:53 min/m
56 223 Jaylyn WELCH 1178 01:38:44 49 211 00:13:28 28 139 00:02:15 35 158 14.1 m/hr 00:42:29 55 223 00:02:38 63 252 00:37:52 15:47 min/m
57 231 Laura BARRERA 1001 01:42:46 59 239 00:14:30 41 187 00:02:54 62 245 10.2 m/hr 00:58:33 3 25 00:01:00 32 145 00:25:48 10:45 min/m
58 233 Norma LUCERO 1262 01:44:04 52 223 00:13:49 63 250 00:04:47 56 216 12.3 m/hr 00:48:53 65 261 00:06:00 52 217 00:30:33 12:43 min/m
59 242 Josie GUTIERREZ 1254 01:46:49 53 225 00:13:50 33 170 00:02:34 60 242 10.5 m/hr 00:57:24 45 186 00:02:03 53 220 00:30:56 12:53 min/m
60 244 Christina WELCH 1106 01:51:27 18 87 00:11:57 55 233 00:03:52 64 253 9.6 m/hr 01:02:25 46 190 00:02:06 57 225 00:31:05 12:57 min/m
61 246 Karen JENNINGS 1257 01:54:10 60 242 00:14:34 39 184 00:02:50 58 237 11.2 m/hr 00:53:43 59 237 00:03:03 64 255 00:39:59 16:39 min/m
62 248 Sandra MONTGOMERY 1264 01:55:41 65 259 00:17:52 60 241 00:04:15 63 246 10.2 m/hr 00:58:41 24 113 00:01:33 61 239 00:33:18 13:52 min/m
63 251 Kristi KELLEY 1280 01:59:31 58 238 00:14:25 35 178 00:02:43 65 258 8.6 m/hr 01:09:38 29 141 00:01:43 56 224 00:31:01 12:55 min/m
64 254 Jodilyn GOODWIN 1253 02:01:56 63 249 00:14:54 65 260 00:09:00 59 241 10.5 m/hr 00:57:00 61 251 00:03:31 62 250 00:37:30 15:37 min/m
65 258 Terri THOMPSON 1238 02:08:40 64 254 00:15:58 53 217 00:03:35 61 243 10.4 m/hr 00:57:37 62 252 00:03:31 65 260 00:47:57 19:58 min/m
Ages 45 - 49
1 11 Shay ROBERTSON 1092 01:05:38 5 65 00:11:38 4 46 00:01:23 4 20 18.1 m/hr 00:33:08 13 133 00:01:41 1 2 00:17:46 7:24 min/m
2 14 Paula PARADIS 1291 01:06:29 2 32 00:10:57 3 34 00:01:18 3 18 18.1 m/hr 00:33:05 2 28 00:01:02 3 26 00:20:06 8:22 min/m
3 17 Anneke BUSH 1050 01:06:56 1 15 00:10:25 2 31 00:01:17 1 7 19.2 m/hr 00:31:12 3 60 00:01:15 9 74 00:22:45 9:28 min/m
4 21 Shelby KILLION 1200 01:07:57 6 69 00:11:40 8 68 00:01:34 5 28 17.6 m/hr 00:34:00 15 176 00:01:56 2 8 00:18:45 7:48 min/m
5 22 Jennifer KRONE 1034 01:08:21 3 36 00:11:01 1 16 00:01:06 2 10 18.8 m/hr 00:31:54 18 208 00:02:16 5 53 00:22:03 9:11 min/m
6 32 Kimberly GALLAND 1217 01:10:41 16 150 00:12:40 14 114 00:01:58 6 29 17.6 m/hr 00:34:01 11 125 00:01:38 4 32 00:20:23 8:29 min/m
7 68 Linda LAING 1085 01:15:49 17 170 00:12:52 7 65 00:01:32 9 81 15.9 m/hr 00:37:37 5 82 00:01:22 8 64 00:22:24 9:20 min/m
8 72 Susan LUCKETT 1129 01:16:08 15 139 00:12:31 16 141 00:02:16 7 63 16.4 m/hr 00:36:38 19 210 00:02:19 7 63 00:22:23 9:19 min/m
9 73 Angi BLACK 1100 01:16:15 14 130 00:12:25 10 80 00:01:39 12 103 15.5 m/hr 00:38:36 6 87 00:01:23 6 57 00:22:10 9:14 min/m
10 100 Lisa LOPEZ 1283 01:18:19 4 54 00:11:25 15 132 00:02:09 8 70 16.2 m/hr 00:36:59 17 206 00:02:15 14 137 00:25:30 10:37 min/m
11 102 Karen ALVAREZ 1121 01:18:40 10 113 00:12:10 5 49 00:01:27 15 115 15.3 m/hr 00:39:09 10 118 00:01:35 13 114 00:24:17 10:07 min/m
12 106 Debbie WEINBEL 1177 01:19:07 8 97 00:12:01 13 103 00:01:53 13 104 15.5 m/hr 00:38:41 20 217 00:02:31 12 106 00:23:59 9:59 min/m
13 114 Jacqueline JONES 1282 01:19:33 9 100 00:12:03 12 98 00:01:52 10 90 15.8 m/hr 00:38:02 1 6 00:00:44 16 163 00:26:51 11:11 min/m
14 129 Sharon NICHOL-JOST 1132 01:22:05 11 118 00:12:16 19 154 00:02:27 17 124 15.1 m/hr 00:39:39 12 130 00:01:40 15 152 00:26:02 10:51 min/m
15 131 Elizabeth WOOD 1059 01:22:13 13 125 00:12:21 11 82 00:01:40 14 108 15.5 m/hr 00:38:48 8 107 00:01:31 19 187 00:27:52 11:36 min/m
16 142 Debbie RAU 1184 01:23:48 18 191 00:13:16 6 59 00:01:31 11 102 15.5 m/hr 00:38:36 22 244 00:03:19 17 170 00:27:05 11:17 min/m
17 148 Diane JANSEN 1157 01:24:13 12 123 00:12:19 9 75 00:01:37 19 183 13.1 m/hr 00:45:42 4 72 00:01:20 10 85 00:23:14 9:41 min/m
18 164 Betsy HERNDON 1127 01:28:17 20 212 00:13:31 17 144 00:02:19 16 118 15.2 m/hr 00:39:23 16 201 00:02:13 20 218 00:30:50 12:51 min/m
19 181 Jean LEACH-STEWART 1087 01:30:32 7 77 00:11:48 18 149 00:02:22 21 226 11.8 m/hr 00:50:59 14 135 00:01:41 11 97 00:23:41 9:52 min/m
20 200 Kathi HOPKINS 1212 01:34:05 19 197 00:13:20 21 224 00:03:45 20 208 12.4 m/hr 00:48:16 9 109 00:01:31 18 175 00:27:11 11:19 min/m
21 204 Lucy RAMIREZ 1183 01:35:08 21 226 00:13:54 20 163 00:02:31 18 138 14.7 m/hr 00:40:50 21 235 00:02:57 21 244 00:34:55 14:33 min/m
22 261 Tina KRAMER 1038 02:18:37 22 258 00:16:26 22 253 00:04:59 22 248 10.0 m/hr 01:00:14 7 106 00:01:31 22 261 00:55:26 23:05 min/m
Ages 50 - 54
1 15 Kathleen SCHARCHBURG 1053 01:06:40 4 47 00:11:19 1 4 00:00:41 1 8 19.1 m/hr 00:31:26 2 12 00:00:48 4 65 00:22:24 9:20 min/m
2 19 Debra WILLIAMS 1043 01:07:27 2 27 00:10:48 3 41 00:01:20 2 11 18.6 m/hr 00:32:19 7 117 00:01:35 2 44 00:21:24 8:55 min/m
3 25 Tracy DEMEL 1026 01:09:34 1 19 00:10:38 9 121 00:02:03 4 19 18.1 m/hr 00:33:08 9 132 00:01:40 3 54 00:22:03 9:11 min/m
4 47 Sandra COWART 1152 01:12:30 8 131 00:12:25 8 113 00:01:57 6 46 17.0 m/hr 00:35:20 11 151 00:01:47 1 39 00:21:00 8:45 min/m
5 56 Annabel SPARKMAN 1048 01:14:10 3 30 00:10:56 6 87 00:01:41 8 59 16.6 m/hr 00:36:12 6 111 00:01:33 6 100 00:23:46 9:54 min/m
6 69 Marty CROUCH 1143 01:15:51 12 208 00:13:27 7 100 00:01:52 5 40 17.4 m/hr 00:34:32 10 143 00:01:44 7 113 00:24:14 10:05 min/m
7 77 Donna ESCOBAR 1108 01:16:34 14 230 00:14:04 4 67 00:01:34 3 16 18.2 m/hr 00:32:57 5 73 00:01:20 11 159 00:26:37 11:05 min/m
8 85 Sandra LANGLEY 1219 01:17:16 9 143 00:12:36 11 137 00:02:14 9 92 15.8 m/hr 00:38:03 3 27 00:01:01 5 88 00:23:21 9:43 min/m
9 110 Sandy TOUCHTON 1095 01:19:17 11 205 00:13:24 5 69 00:01:34 7 58 16.6 m/hr 00:36:10 13 193 00:02:08 10 150 00:25:59 10:49 min/m
10 120 Karen JEFFRIES 1288 01:20:09 7 111 00:12:08 10 134 00:02:11 11 98 15.7 m/hr 00:38:18 8 119 00:01:35 9 148 00:25:56 10:48 min/m
11 127 Rebecca SINOPOLI 1231 01:21:48 5 68 00:11:39 16 234 00:03:56 10 94 15.7 m/hr 00:38:06 16 228 00:02:43 8 133 00:25:22 10:34 min/m
12 145 Elizabeth HEDDEN 1116 01:24:03 13 209 00:13:28 2 20 00:01:10 12 128 15.0 m/hr 00:40:00 15 209 00:02:18 12 172 00:27:06 11:17 min/m
13 209 Debi JOHNSTON 1101 01:36:22 15 233 00:14:11 13 204 00:03:14 13 190 12.9 m/hr 00:46:29 12 191 00:02:08 15 214 00:30:19 12:37 min/m
14 221 Lila OWENS 1170 01:38:07 10 187 00:13:12 17 243 00:04:22 15 215 12.3 m/hr 00:48:48 17 234 00:02:56 14 196 00:28:48 12:00 min/m
15 228 Susan BARBETTINI 1068 01:41:42 6 101 00:12:04 12 146 00:02:19 18 244 10.3 m/hr 00:58:27 1 4 00:00:40 13 192 00:28:10 11:44 min/m
16 229 Heidi MCLEOD 1162 01:41:59 16 240 00:14:32 15 222 00:03:42 16 220 12.1 m/hr 00:49:33 14 194 00:02:09 17 232 00:32:02 13:21 min/m
17 232 Lorenda NERISON 1229 01:43:32 17 248 00:14:50 14 210 00:03:24 17 236 11.3 m/hr 00:53:16 4 36 00:01:06 16 219 00:30:54 12:52 min/m
18 255 Lisa DAVIS 1215 02:02:06 18 260 00:18:09 18 256 00:05:29 14 205 12.4 m/hr 00:48:14 18 254 00:03:35 18 258 00:46:38 19:26 min/m
Ages 55 - 59
1 82 Carole PENNING 1113 01:16:59 1 107 00:12:07 1 51 00:01:28 1 66 16.3 m/hr 00:36:43 2 76 00:01:21 1 132 00:25:19 10:33 min/m
2 117 Allison SCOTT 1017 01:19:59 3 183 00:13:07 2 117 00:02:00 2 87 15.8 m/hr 00:37:59 1 18 00:00:56 2 149 00:25:56 10:48 min/m
3 171 Sharon CARNETT 1103 01:29:10 2 142 00:12:36 3 171 00:02:36 3 133 14.9 m/hr 00:40:09 3 216 00:02:31 3 226 00:31:17 13:02 min/m
4 230 Nancy MCGOWAN 1205 01:42:19 4 251 00:15:04 4 235 00:04:00 4 210 12.4 m/hr 00:48:28 4 231 00:02:49 4 231 00:31:56 13:18 min/m
Ages 60 - 64
1 89 Anne WALKER 1139 01:17:36 1 121 00:12:17 1 177 00:02:40 1 105 15.5 m/hr 00:38:43 1 180 00:01:59 1 51 00:21:55 9:08 min/m
2 169 Nancy BOHNSTEDT 1244 01:29:01 2 216 00:13:35 2 211 00:03:25 2 178 13.3 m/hr 00:45:04 2 255 00:03:41 2 84 00:23:14 9:40 min/m
Relay
1 10 WE R FAMILY 1018 01:05:31 1 1 00:08:52 2 3 00:00:37 3 65 16.3 m/hr 00:36:42 1 1 00:00:28 3 11 00:18:51 7:51 min/m
2 20 A MOTHER'S DAY GIFT 1002 01:07:43 2 33 00:10:59 4 8 00:00:56 1 43 17.2 m/hr 00:34:47 5 198 00:02:11 2 10 00:18:49 7:50 min/m
3 59 TWIN TURBOS 1214 01:14:37 3 50 00:11:20 1 2 00:00:35 2 53 16.7 m/hr 00:35:56 4 77 00:01:21 4 134 00:25:24 10:35 min/m
4 94 L&M 1146 01:17:56 4 102 00:12:04 3 5 00:00:42 5 186 12.9 m/hr 00:46:21 2 2 00:00:30 1 6 00:18:18 7:37 min/m
5 234 SWIMMING SWEATY HOUSEWIVES 1201 01:44:08 5 213 00:13:33 6 207 00:03:20 6 234 11.5 m/hr 00:52:07 3 5 00:00:44 5 242 00:34:22 14:19 min/m
6 240 MOTHER-DAUGHTER 1190 01:46:22 6 255 00:16:14 5 155 00:02:27 4 177 13.3 m/hr 00:44:59 6 239 00:03:03 7 253 00:39:37 16:30 min/m
7 257 GPALS 1249 02:08:37 7 261 00:18:28 7 254 00:05:02 7 255 9.1 m/hr 01:06:11 7 243 00:03:18 6 247 00:35:37 14:50 min/m
Chip timing by RRPTiming.com!
AttachmentSize
2012 Results - XLS format120 KB

© copyright 2013, RRPTiming.com. RRPTiming is a Redemption Race Productions site. Website by Rich.